Time;durP1;ratioP1;P1;durP2;ratioP2;P2;SDS_P1;SDS_P2;PMS_P1;PMS_P2;Temp;Humidity;BMP_temperature;BMP_pressure;BME280_temperature;BME280_humidity;BME280_pressure;Samples;Min_cycle;Max_cycle;Signal;HPM_P1;HPM_P2
2022/05/26 00:02:08;;;;;;;1.20;1.10;;;;;;;15.88;54.94;100964.19;5035495;28;20316;-73
2022/05/26 00:04:35;;;;;;;2.20;1.50;;;;;;;15.91;55.47;100969.34;5034561;28;20716;-74
2022/05/26 00:07:01;;;;;;;3.77;2.03;;;;;;;15.87;56.02;100946.66;5035103;28;20670;-72
2022/05/26 00:09:28;;;;;;;1.83;1.70;;;;;;;15.91;56.21;100940.38;5034955;28;20219;-73
2022/05/26 00:11:55;;;;;;;2.73;2.00;;;;;;;15.84;56.55;100936.25;5054345;28;20254;-72
2022/05/26 00:14:22;;;;;;;4.43;2.03;;;;;;;15.86;56.62;100926.53;5055223;28;20297;-72
2022/05/26 00:16:51;;;;;;;2.10;1.90;;;;;;;15.80;56.83;100924.97;5054950;28;20212;-73
2022/05/26 00:19:19;;;;;;;3.70;2.20;;;;;;;15.73;57.24;100918.16;5054401;28;20690;-73
2022/05/26 00:21:49;;;;;;;2.60;1.90;;;;;;;15.69;57.62;100908.63;5054641;28;20696;-73
2022/05/26 00:24:17;;;;;;;3.57;2.30;;;;;;;15.71;57.69;100919.09;5054825;28;20227;-73
2022/05/26 00:26:44;;;;;;;2.43;1.80;;;;;;;15.61;58.13;100898.31;5054678;28;20207;-73
2022/05/26 00:29:11;;;;;;;2.83;2.07;;;;;;;15.66;58.10;100885.03;5054484;28;20210;-72
2022/05/26 00:31:37;;;;;;;1.80;1.70;;;;;;;15.67;58.04;100878.84;5054541;28;20202;-72
2022/05/26 00:34:05;;;;;;;1.93;1.83;;;;;;;15.55;58.54;100888.00;5054322;28;20223;-72
2022/05/26 00:36:42;;;;;;;3.73;2.40;;;;;;;15.50;59.07;100889.94;5054268;28;20207;-73
2022/05/26 00:39:13;;;;;;;4.13;2.10;;;;;;;15.44;59.68;100869.94;5053983;28;20646;-73
2022/05/26 00:41:41;;;;;;;3.17;2.10;;;;;;;15.36;59.90;100850.03;5053352;28;20591;-72
2022/05/26 00:44:08;;;;;;;4.77;2.67;;;;;;;15.43;60.58;100820.84;5053204;28;20273;-73
2022/05/26 00:46:40;;;;;;;3.13;2.83;;;;;;;15.49;61.00;100809.28;5054380;28;20292;-72
2022/05/26 00:49:14;;;;;;;2.70;2.50;;;;;;;15.49;61.79;100780.34;5054136;28;20241;-72
2022/05/26 00:51:40;;;;;;;3.20;3.00;;;;;;;15.31;62.76;100768.66;5053999;28;20664;-73
2022/05/26 00:54:12;;;;;;;2.93;2.70;;;;;;;15.17;63.55;100716.53;5054427;28;20229;-72
2022/05/26 00:56:42;;;;;;;5.00;3.07;;;;;;;15.16;64.28;100706.06;5054116;28;20264;-72
2022/05/26 00:59:15;;;;;;;3.43;3.03;;;;;;;15.02;65.10;100678.44;5054013;28;20190;-72
2022/05/26 01:01:41;;;;;;;3.63;3.43;;;;;;;14.97;65.39;100666.38;5054033;28;20238;-73
2022/05/26 01:04:18;;;;;;;4.00;3.60;;;;;;;14.97;65.86;100638.31;5053648;28;20288;-72
2022/05/26 01:06:47;;;;;;;3.37;3.17;;;;;;;14.98;65.68;100642.66;5053600;28;20686;-72
2022/05/26 01:09:14;;;;;;;4.90;3.33;;;;;;;15.04;65.49;100642.47;5053543;28;20203;-73
2022/05/26 01:11:43;;;;;;;3.70;3.50;;;;;;;15.11;65.31;100648.38;5053361;28;20211;-72
2022/05/26 01:14:13;;;;;;;3.77;3.43;;;;;;;15.11;65.35;100648.38;5053611;28;20620;-72
2022/05/26 01:16:48;;;;;;;3.70;3.40;;;;;;;15.20;65.29;100652.44;5053617;28;20207;-72
2022/05/26 01:20:01;;;;;;;9.67;4.43;;;;;;;15.09;65.20;100655.44;5053312;28;20635;-72
2022/05/26 01:22:45;;;;;;;4.13;3.53;;;;;;;15.08;65.64;100656.34;5047111;28;20545;-72
2022/05/26 01:25:41;;;;;;;3.93;3.70;;;;;;;14.90;66.49;100636.81;5053540;28;20270;-72
2022/05/26 01:28:21;;;;;;;3.90;3.70;;;;;;;14.99;66.07;100633.88;5053734;28;20216;-72
2022/05/26 01:30:53;;;;;;;4.77;3.53;;;;;;;15.15;66.00;100644.72;5053387;28;20199;-71
2022/05/26 01:33:38;;;;;;;3.50;3.30;;;;;;;15.33;65.53;100659.00;5053347;28;20229;-72
2022/05/26 01:36:17;;;;;;;4.40;4.00;;;;;;;15.27;64.78;100680.25;5053552;28;20236;-72
2022/05/26 01:38:55;;;;;;;3.90;3.70;;;;;;;15.27;64.94;100685.50;5053098;28;20206;-72
2022/05/26 01:41:49;;;;;;;4.33;3.97;;;;;;;15.28;64.70;100684.59;5052800;28;20231;-72
2022/05/26 01:44:26;;;;;;;4.67;4.30;;;;;;;15.26;65.06;100700.44;5052986;28;20716;-71
2022/05/26 01:46:59;;;;;;;4.50;4.10;;;;;;;15.27;64.97;100701.28;5053186;28;20245;-72
2022/05/26 01:49:34;;;;;;;4.70;4.30;;;;;;;15.18;65.24;100685.81;5052962;28;20259;-72
2022/05/26 01:52:06;;;;;;;4.20;4.00;;;;;;;15.23;65.34;100682.13;5053301;28;20268;-72
2022/05/26 01:54:42;;;;;;;4.60;4.30;;;;;;;15.26;64.93;100699.56;5052922;28;20231;-72
2022/05/26 01:57:14;;;;;;;5.10;4.27;;;;;;;15.28;64.99;100697.75;5052404;28;20205;-71
2022/05/26 01:59:46;;;;;;;3.90;3.70;;;;;;;15.35;64.93;100701.88;5052613;28;20740;-73
2022/05/26 02:02:18;;;;;;;5.87;3.90;;;;;;;15.28;65.06;100716.16;5052708;28;20830;-72
2022/05/26 02:04:51;;;;;;;4.73;4.27;;;;;;;15.29;64.86;100717.88;5052743;28;20223;-72
2022/05/26 02:07:25;;;;;;;3.70;3.50;;;;;;;15.35;64.74;100716.81;5052535;28;20599;-72
2022/05/26 02:09:53;;;;;;;4.57;4.27;;;;;;;15.13;65.49;100725.44;5052622;28;20244;-72
2022/05/26 02:12:25;;;;;;;3.70;3.50;;;;;;;15.19;65.68;100714.69;5052044;28;20678;-72
2022/05/26 02:14:57;;;;;;;4.40;3.87;;;;;;;15.28;65.21;100708.25;5032991;28;20231;-72
2022/05/26 02:17:27;;;;;;;3.83;3.23;;;;;;;15.33;65.04;100716.88;5032341;28;20193;-71
2022/05/26 02:19:59;;;;;;;3.60;3.30;;;;;;;15.31;65.36;100723.94;5032505;28;20262;-72
2022/05/26 02:22:30;;;;;;;3.40;3.10;;;;;;;15.30;65.48;100714.31;5032347;28;20282;-72
2022/05/26 02:25:02;;;;;;;3.43;3.07;;;;;;;15.25;65.87;100711.00;5032730;28;20202;-71
2022/05/26 02:27:30;;;;;;;3.60;3.40;;;;;;;15.20;65.79;100715.56;5032178;28;20672;-73
2022/05/26 02:30:00;;;;;;;3.90;3.60;;;;;;;15.25;65.82;100713.63;5031903;28;20596;-72
2022/05/26 02:32:31;;;;;;;4.03;3.70;;;;;;;15.29;65.28;100716.09;5032214;28;20203;-72
2022/05/26 02:35:02;;;;;;;5.73;3.60;;;;;;;15.28;65.55;100714.41;5032226;28;20208;-72
2022/05/26 02:37:31;;;;;;;4.67;4.27;;;;;;;15.09;66.25;100715.94;5032314;28;20252;-72
2022/05/26 02:39:58;;;;;;;4.43;4.03;;;;;;;15.15;65.90;100693.84;5036393;28;20211;-72
2022/05/26 02:42:25;;;;;;;4.27;4.00;;;;;;;15.08;66.21;100686.16;5051545;28;20276;-72
2022/05/26 02:44:52;;;;;;;4.43;4.10;;;;;;;15.03;66.82;100672.28;5051833;28;20231;-72
2022/05/26 02:47:34;;;;;;;4.87;4.47;;;;;;;15.02;66.82;100682.84;5051898;28;20301;-73
2022/05/26 02:50:17;;;;;;;4.63;4.13;;;;;;;15.13;66.91;100680.72;5051955;28;20229;-72
2022/05/26 02:52:54;;;;;;;4.60;4.07;;;;;;;15.08;66.71;100686.16;5052306;28;20264;-72
2022/05/26 02:55:30;;;;;;;5.33;4.40;;;;;;;15.05;67.03;100673.09;5052150;28;20241;-72
2022/05/26 02:58:07;;;;;;;4.40;4.10;;;;;;;15.08;67.12;100677.38;5051796;28;20199;-73
2022/05/26 03:00:41;;;;;;;4.13;3.83;;;;;;;15.12;66.85;100679.00;5051723;28;20198;-72
2022/05/26 03:03:13;;;;;;;4.63;4.23;;;;;;;15.16;66.63;100675.34;5051904;28;20251;-73
2022/05/26 03:05:48;;;;;;;3.97;3.50;;;;;;;15.27;66.38;100680.25;5051771;28;20237;-72
2022/05/26 03:08:17;;;;;;;3.67;3.37;;;;;;;15.26;66.26;100699.56;5051631;28;20191;-73
2022/05/26 03:10:49;;;;;;;4.50;4.00;;;;;;;15.24;66.20;100709.28;5051417;28;20714;-74
2022/05/26 03:13:15;;;;;;;3.87;3.57;;;;;;;15.06;66.91;100681.84;5051263;28;20280;-74
2022/05/26 03:15:42;;;;;;;4.20;3.70;;;;;;;15.16;66.92;100683.22;5051888;28;20213;-75
2022/05/26 03:18:09;;;;;;;3.53;3.33;;;;;;;15.18;67.27;100684.06;5051771;28;20211;-75
2022/05/26 03:20:36;;;;;;;3.57;3.27;;;;;;;15.24;67.10;100672.47;5051237;28;20681;-74
2022/05/26 03:23:04;;;;;;;4.67;3.60;;;;;;;15.27;66.93;100680.25;5051808;28;20227;-75
2022/05/26 03:25:31;;;;;;;4.00;3.70;;;;;;;15.32;66.73;100685.34;5051707;28;20231;-74
2022/05/26 03:27:57;;;;;;;4.53;4.13;;;;;;;15.22;67.01;100684.81;5051683;28;20210;-74
2022/05/26 03:30:23;;;;;;;4.40;4.07;;;;;;;15.07;67.49;100675.69;5051416;28;20214;-75
2022/05/26 03:32:50;;;;;;;4.20;3.90;;;;;;;14.94;68.12;100666.47;5051615;28;20214;-75
2022/05/26 03:40:56;;;;;;;3.70;3.40;;;;;;;15.22;67.60;100663.75;5050302;28;20229;-75
2022/05/26 03:43:29;;;;;;;4.93;4.47;;;;;;;15.35;66.97;100674.72;5051287;28;20217;-74
2022/05/26 03:45:58;;;;;;;3.90;3.70;;;;;;;15.16;67.61;100682.38;5051690;28;20197;-74
2022/05/26 03:48:24;;;;;;;4.73;2.93;;;;;;;15.16;67.83;100672.72;5051365;28;20207;-73
2022/05/26 03:50:51;;;;;;;3.30;3.10;;;;;;;15.13;67.96;100666.72;5051137;28;20217;-74
2022/05/26 03:53:17;;;;;;;3.40;3.20;;;;;;;15.13;68.17;100654.44;5051420;28;20227;-73
2022/05/26 03:55:44;;;;;;;2.93;2.73;;;;;;;15.17;68.17;100656.03;5051604;28;20669;-74
2022/05/26 03:58:11;;;;;;;3.47;3.17;;;;;;;15.16;67.96;100677.97;5051313;28;20203;-73
2022/05/26 04:00:38;;;;;;;4.13;3.70;;;;;;;14.92;68.72;100684.91;5051184;28;20261;-75
2022/05/26 04:03:05;;;;;;;3.57;3.27;;;;;;;14.98;68.70;100668.94;5051480;28;20228;-74
2022/05/26 04:05:31;;;;;;;5.30;3.60;;;;;;;14.92;69.39;100671.78;5050748;28;20221;-73
2022/05/26 04:07:58;;;;;;;4.10;3.80;;;;;;;14.97;69.56;100643.59;5051475;28;20211;-74
2022/05/26 04:10:25;;;;;;;4.03;3.73;;;;;;;14.95;70.07;100637.53;5051008;28;20261;-74
2022/05/26 04:12:51;;;;;;;5.37;4.97;;;;;;;15.01;70.18;100629.41;5051026;28;20275;-74
2022/05/26 04:15:20;;;;;;;4.03;3.80;;;;;;;15.04;70.48;100637.22;5051419;28;20348;-75
2022/05/26 04:17:47;;;;;;;4.20;3.90;;;;;;;14.89;70.76;100624.59;5050883;28;20301;-75
2022/05/26 04:20:16;;;;;;;4.50;4.20;;;;;;;15.06;70.63;100622.25;5053425;28;20223;-75
2022/05/26 04:22:43;;;;;;;5.00;4.70;;;;;;;14.99;71.15;100618.09;5054745;28;20316;-74
2022/05/26 04:25:10;;;;;;;5.57;4.77;;;;;;;15.00;71.12;100613.69;5054905;28;20549;-74
2022/05/26 04:27:37;;;;;;;5.70;5.37;;;;;;;14.96;71.89;100594.53;5054580;28;20241;-74
2022/05/26 04:30:04;;;;;;;5.53;5.13;;;;;;;14.80;72.68;100591.56;5054326;28;20215;-73
2022/05/26 04:32:32;;;;;;;5.77;5.47;;;;;;;14.86;73.30;100557.19;5054492;28;20231;-74
2022/05/26 04:34:59;;;;;;;6.43;6.10;;;;;;;14.87;73.59;100547.56;5054643;28;20207;-74
2022/05/26 04:37:27;;;;;;;6.73;6.23;;;;;;;14.97;73.16;100542.84;5054596;28;20240;-74
2022/05/26 04:39:55;;;;;;;6.40;6.00;;;;;;;14.99;73.10;100560.25;5054294;28;20214;-74
2022/05/26 04:42:22;;;;;;;6.67;6.17;;;;;;;15.07;73.26;100571.38;5052756;28;20225;-75
2022/05/26 04:44:49;;;;;;;6.77;6.27;;;;;;;15.06;73.22;100568.78;5054242;28;20261;-74
2022/05/26 04:47:17;;;;;;;7.13;6.63;;;;;;;14.96;74.09;100552.47;5054101;28;20306;-76
2022/05/26 04:49:45;;;;;;;7.20;6.70;;;;;;;14.97;74.10;100548.94;5054130;28;20211;-76
2022/05/26 04:52:14;;;;;;;7.70;7.20;;;;;;;14.99;74.18;100548.91;5054387;28;20202;-75
2022/05/26 04:54:42;;;;;;;7.07;6.67;;;;;;;15.03;74.56;100545.25;5054173;28;20280;-75
2022/05/26 04:57:09;;;;;;;7.87;7.37;;;;;;;15.00;74.04;100553.22;5053787;28;20229;-74
2022/05/26 04:59:43;;;;;;;8.27;7.67;;;;;;;14.97;74.81;100558.63;5053702;28;20335;-74
2022/05/26 05:02:11;;;;;;;7.60;7.00;;;;;;;14.94;75.42;100542.94;5053809;28;20219;-74
2022/05/26 05:04:40;;;;;;;7.70;7.10;;;;;;;14.99;75.22;100541.88;5053690;28;20313;-74
2022/05/26 05:07:09;;;;;;;7.50;7.00;;;;;;;14.98;75.58;100539.28;5053981;28;20202;-74
2022/05/26 05:09:36;;;;;;;8.63;8.13;;;;;;;14.91;75.85;100519.41;5053555;28;20244;-75
2022/05/26 05:12:03;;;;;;;8.40;7.80;;;;;;;14.93;75.90;100528.09;5053227;28;20203;-74
2022/05/26 05:14:31;;;;;;;8.93;8.33;;;;;;;15.02;75.98;100533.00;5053609;28;20225;-74
2022/05/26 05:16:58;;;;;;;9.07;8.27;;;;;;;15.09;75.54;100543.25;5053733;28;20201;-74
2022/05/26 05:19:24;;;;;;;9.03;8.33;;;;;;;15.01;76.51;100528.69;5053451;28;20213;-74
2022/05/26 05:21:55;;;;;;;9.27;8.57;;;;;;;14.97;76.59;100541.06;5053734;28;20295;-74
2022/05/26 05:24:30;;;;;;;8.80;8.10;;;;;;;14.99;77.11;100539.25;5053439;28;20286;-73
2022/05/26 05:27:01;;;;;;;8.93;8.33;;;;;;;15.04;76.42;100537.31;5046944;28;20650;-74
2022/05/26 05:29:32;;;;;;;9.10;8.40;;;;;;;14.91;76.95;100548.31;5041916;28;20661;-74
2022/05/26 05:32:02;;;;;;;8.90;8.20;;;;;;;15.03;76.97;100542.63;5044113;28;20194;-74
2022/05/26 05:34:35;;;;;;;9.03;8.47;;;;;;;15.04;77.11;100534.69;5043737;28;20227;-74
2022/05/26 05:37:02;;;;;;;9.57;8.97;;;;;;;14.87;78.82;100516.88;5043794;28;20205;-74
2022/05/26 05:39:30;;;;;;;11.10;10.10;;;;;;;14.89;80.80;100465.09;5043673;28;20199;-73
2022/05/26 05:41:56;;;;;;;11.30;10.40;;;;;;;14.88;82.02;100408.22;5048181;28;20224;-74
2022/05/26 05:44:23;;;;;;;11.87;11.13;;;;;;;14.82;83.29;100389.16;5048441;28;20747;-74
2022/05/26 05:46:57;;;;;;;13.33;12.37;;;;;;;14.44;85.36;100352.84;5043328;28;20251;-73
2022/05/26 05:49:25;;;;;;;12.57;11.77;;;;;;;14.41;86.90;100310.09;5043360;28;20201;-73
2022/05/26 05:51:52;;;;;;;12.83;11.73;;;;;;;14.35;87.75;100299.81;5043479;28;20679;-71
2022/05/26 05:54:19;;;;;;;12.63;11.83;;;;;;;14.23;88.37;100301.13;5042324;28;20218;-73
2022/05/26 05:56:48;;;;;;;11.77;10.97;;;;;;;14.29;89.10;100286.00;5046167;28;20211;-73
2022/05/26 05:59:15;;;;;;;11.73;10.90;;;;;;;14.20;90.01;100291.59;5046362;28;20248;-73
2022/05/26 06:01:42;;;;;;;13.60;12.60;;;;;;;14.05;90.30;100286.88;5041932;28;20221;-73
2022/05/26 06:04:09;;;;;;;12.77;11.87;;;;;;;13.98;90.94;100280.16;5052258;28;20278;-73
2022/05/26 06:06:37;;;;;;;12.97;12.07;;;;;;;14.10;91.03;100287.59;5052628;28;20563;-73
2022/05/26 06:09:04;;;;;;;12.63;11.73;;;;;;;14.02;91.58;100306.22;5052078;28;20588;-73
2022/05/26 06:11:32;;;;;;;12.43;11.33;;;;;;;14.18;91.73;100311.78;5052191;28;20236;-73
2022/05/26 06:13:59;;;;;;;11.30;10.57;;;;;;;14.35;91.00;100331.31;5052174;28;20252;-74
2022/05/26 06:16:27;;;;;;;11.60;10.60;;;;;;;14.27;90.79;100363.97;5051982;28;20213;-73
2022/05/26 06:18:54;;;;;;;11.60;10.80;;;;;;;14.27;91.18;100363.97;5052110;28;20205;-73
2022/05/26 06:21:20;;;;;;;13.00;11.93;;;;;;;14.43;90.62;100374.78;5052652;28;20205;-73
2022/05/26 06:23:47;;;;;;;14.37;13.37;;;;;;;14.51;90.58;100379.78;5052209;28;20229;-73
2022/05/26 06:26:14;;;;;;;14.10;13.10;;;;;;;14.46;91.12;100387.81;5052382;28;20220;-73
2022/05/26 06:31:26;;;;;;;16.27;15.07;;;;;;;14.60;90.93;100397.84;5052239;28;20243;-73
2022/05/26 06:39:21;;;;;;;16.83;15.63;;;;;;;14.79;89.60;100434.81;5052293;28;20204;-77
2022/05/26 06:44:32;;;;;;;17.33;16.13;;;;;;;15.03;87.88;100495.31;5057684;28;20737;-77
2022/05/26 06:47:00;;;;;;;17.50;16.40;;;;;;;14.97;88.34;100493.75;5056590;28;20201;-77
2022/05/26 06:49:26;;;;;;;18.10;16.37;;;;;;;15.04;87.03;100526.81;5059125;28;20602;-77
2022/05/26 06:51:53;;;;;;;16.77;15.63;;;;;;;15.14;85.80;100565.88;4707477;28;9999910;-78
2022/05/26 06:54:19;;;;;;;16.93;15.57;;;;;;;15.23;85.24;100583.97;5051181;28;20237;-77
2022/05/26 06:56:46;;;;;;;16.27;15.07;;;;;;;15.27;83.50;100611.88;5048577;28;20204;-76
2022/05/26 06:59:12;;;;;;;15.07;13.97;;;;;;;15.13;83.99;100632.53;5051957;28;20202;-80
2022/05/26 07:01:39;;;;;;;14.73;13.77;;;;;;;15.20;83.50;100634.03;5051919;28;20255;-78
2022/05/26 07:04:07;;;;;;;14.63;13.63;;;;;;;15.29;83.55;100638.97;5050902;28;20226;-77
2022/05/26 07:06:33;;;;;;;14.73;13.40;;;;;;;15.49;82.66;100654.03;5050485;28;20263;-78
2022/05/26 07:08:59;;;;;;;12.70;11.90;;;;;;;15.46;81.44;100702.38;5049911;28;20209;-76
2022/05/26 07:11:26;;;;;;;11.57;10.53;;;;;;;15.64;79.87;100742.97;5051315;28;20205;-77
2022/05/26 07:13:52;;;;;;;12.17;11.17;;;;;;;15.68;79.02;100794.59;5051097;28;20230;-76
2022/05/26 07:16:19;;;;;;;12.03;11.13;;;;;;;15.76;79.53;100790.88;5051784;28;20243;-76
2022/05/26 07:18:46;;;;;;;12.57;9.63;;;;;;;15.77;77.51;100832.06;5051445;28;20558;-77
2022/05/26 07:21:14;;;;;;;10.63;9.83;;;;;;;15.78;77.81;100832.00;5051756;28;20295;-78
2022/05/26 07:23:41;;;;;;;9.50;8.90;;;;;;;15.96;77.41;100834.94;5052121;28;20230;-79
2022/05/26 07:26:10;;;;;;;9.43;8.73;;;;;;;15.98;77.03;100857.66;5052210;28;20214;-78
2022/05/26 07:28:38;;;;;;;9.37;8.60;;;;;;;16.01;75.84;100885.66;5051510;28;20217;-78
2022/05/26 07:31:05;;;;;;;8.43;7.50;;;;;;;15.87;74.62;100920.34;5051772;28;20261;-77
2022/05/26 07:33:31;;;;;;;9.10;8.30;;;;;;;16.03;75.78;100913.63;5051647;28;20728;-76
2022/05/26 07:35:58;;;;;;;8.97;8.30;;;;;;;16.02;75.55;100908.44;5051176;28;20206;-76
2022/05/26 07:41:18;;;;;;;10.57;9.70;;;;;;;15.87;77.18;100850.09;5052594;28;20217;-76
2022/05/26 07:43:47;;;;;;;9.87;9.00;;;;;;;15.79;77.24;100840.75;5051490;28;20290;-77
2022/05/26 07:46:14;;;;;;;10.13;9.23;;;;;;;15.73;77.09;100852.34;5050823;28;20209;-76
2022/05/26 07:48:41;;;;;;;9.60;8.70;;;;;;;15.87;77.66;100839.56;5052846;28;20225;-77
2022/05/26 07:51:07;;;;;;;9.60;8.90;;;;;;;16.05;77.45;100827.56;5054008;28;20211;-78
2022/05/26 07:53:35;;;;;;;8.43;7.83;;;;;;;16.10;75.98;100855.50;5053922;28;20725;-76
2022/05/26 07:56:02;;;;;;;9.20;8.50;;;;;;;16.32;75.84;100876.69;5056702;28;20218;-77
2022/05/26 07:58:29;;;;;;;9.07;8.27;;;;;;;16.31;75.51;100903.94;5055735;28;20208;-78
2022/05/26 08:00:55;;;;;;;8.27;7.60;;;;;;;16.29;74.98;100919.78;5055027;28;20562;-78
2022/05/26 08:03:22;;;;;;;8.73;7.93;;;;;;;16.48;75.02;100925.28;5057304;28;20240;-77
2022/05/26 08:05:48;;;;;;;8.83;8.13;;;;;;;16.61;74.84;100928.31;5056054;28;20212;-77
2022/05/26 08:08:16;;;;;;;8.47;7.67;;;;;;;16.67;74.35;100942.16;5056372;28;20208;-78
2022/05/26 08:10:43;;;;;;;8.40;7.77;;;;;;;16.56;74.06;100954.00;5057869;28;20210;-76
2022/05/26 08:13:11;;;;;;;10.10;7.97;;;;;;;16.37;74.00;100962.56;5056359;28;20227;-77
2022/05/26 08:15:37;;;;;;;7.87;7.17;;;;;;;16.40;73.65;100959.78;5056743;28;20241;-77
2022/05/26 08:18:04;;;;;;;13.73;7.67;;;;;;;16.54;73.92;100969.84;5056698;28;20240;-79
2022/05/26 08:20:31;;;;;;;7.67;6.90;;;;;;;16.37;72.20;101009.09;5056326;28;20211;-76
2022/05/26 08:22:57;;;;;;;8.53;6.90;;;;;;;16.23;73.16;100991.13;5056120;28;20236;-77
2022/05/26 08:25:24;;;;;;;7.63;6.70;;;;;;;16.12;72.78;100999.41;5056104;28;20215;-79
2022/05/26 08:27:52;;;;;;;8.23;7.43;;;;;;;15.97;74.22;100984.94;5055562;28;20211;-78
2022/05/26 08:30:19;;;;;;;6.87;6.27;;;;;;;16.04;73.78;100970.66;5055757;28;20705;-78
2022/05/26 08:32:45;;;;;;;8.63;7.60;;;;;;;16.16;73.33;100985.22;5056025;28;20215;-77
2022/05/26 08:35:14;;;;;;;7.63;6.93;;;;;;;16.22;74.26;100985.00;5055790;28;20209;-78
2022/05/26 08:37:40;;;;;;;7.63;6.93;;;;;;;16.18;74.03;100979.91;5055536;28;20259;-77
2022/05/26 08:40:12;;;;;;;7.63;7.03;;;;;;;16.25;73.46;101002.47;5055532;28;20210;-77
2022/05/26 08:42:40;;;;;;;7.50;6.93;;;;;;;16.41;74.22;100981.72;5054655;28;20238;-78
2022/05/26 08:45:12;;;;;;;7.37;6.57;;;;;;;16.45;71.96;101031.66;5056005;28;20205;-76
2022/05/26 08:47:42;;;;;;;7.63;6.83;;;;;;;16.38;72.75;101043.31;5054448;28;20213;-78
2022/05/26 08:50:13;;;;;;;6.57;5.97;;;;;;;16.36;72.35;101045.13;5053765;28;20260;-76
2022/05/26 08:52:45;;;;;;;6.77;6.17;;;;;;;16.48;72.25;101047.34;5053711;28;20217;-77
2022/05/26 08:55:16;;;;;;;6.47;5.90;;;;;;;16.72;73.49;101012.31;5053586;28;20352;-80
2022/05/26 08:57:44;;;;;;;7.57;6.43;;;;;;;16.77;72.48;101036.72;5054721;28;20282;-77
2022/05/26 09:00:16;;;;;;;5.30;4.80;;;;;;;16.82;69.17;101135.88;5054963;28;20207;-76
2022/05/26 09:02:43;;;;;;;9.13;5.67;;;;;;;16.96;70.19;101106.38;5052703;28;20232;-76
2022/05/26 09:05:13;;;;;;;6.50;4.20;;;;;;;17.20;67.78;101146.00;5054438;28;20219;-77
2022/05/26 09:13:41;;;;;;;4.40;3.57;;;;;;;17.18;64.88;101285.03;5011681;28;20331;-79
2022/05/26 09:16:11;;;;;;;3.97;3.03;;;;;;;17.45;62.91;101329.00;5012780;28;20623;-76
2022/05/26 09:18:40;;;;;;;3.10;2.40;;;;;;;17.26;58.67;101457.16;5031347;28;20255;-75
2022/05/26 09:21:22;;;;;;;4.27;2.67;;;;;;;17.31;60.52;101470.25;5054557;28;20218;-78
2022/05/26 09:23:49;;;;;;;4.17;3.23;;;;;;;17.24;62.50;101399.19;5054632;28;20400;-78
2022/05/26 09:26:18;;;;;;;3.27;2.97;;;;;;;17.30;60.89;101415.72;5054725;28;20306;-76
2022/05/26 09:28:48;;;;;;;4.13;2.73;;;;;;;17.55;60.15;101468.63;5053488;28;20206;-75
2022/05/26 09:31:31;;;;;;;3.47;2.30;;;;;;;17.83;57.00;101505.56;5052888;28;20210;-76
2022/05/26 09:34:09;;;;;;;3.47;2.30;;;;;;;17.83;55.66;101590.97;5055068;28;20230;-78
2022/05/26 09:36:45;;;;;;;3.00;2.27;;;;;;;17.96;55.12;101598.53;5055006;28;20196;-78
2022/05/26 09:39:12;;;;;;;2.00;1.80;;;;;;;17.90;55.25;101638.34;5054348;28;20195;-77
2022/05/26 09:41:41;;;;;;;2.00;1.80;;;;;;;17.72;55.35;101639.72;5055333;28;20236;-75
2022/05/26 09:44:22;;;;;;;2.57;1.63;;;;;;;17.82;55.09;101628.84;5052728;28;20294;-77
2022/05/26 09:46:52;;;;;;;1.77;1.50;;;;;;;17.84;54.75;101658.75;5053746;28;20196;-77
2022/05/26 09:49:24;;;;;;;2.73;1.90;;;;;;;17.91;53.64;101632.16;5052930;28;20188;-77
2022/05/26 09:51:50;;;;;;;2.60;1.63;;;;;;;17.93;55.28;101654.09;5052784;28;20646;-77
2022/05/26 09:54:25;;;;;;;2.40;1.70;;;;;;;17.70;53.42;101649.47;5051792;28;20274;-77
2022/05/26 09:56:52;;;;;;;2.83;1.50;;;;;;;17.55;55.05;101648.16;5051276;28;20219;-77
2022/05/26 09:59:27;;;;;;;3.67;1.93;;;;;;;17.79;55.87;101617.50;5051875;28;20278;-78
2022/05/26 10:02:01;;;;;;;2.83;1.73;;;;;;;17.78;55.78;101603.44;5052501;28;20532;-76
2022/05/26 10:04:46;;;;;;;3.07;1.53;;;;;;;17.78;55.13;101606.09;5051938;28;20887;-76
2022/05/26 10:07:21;;;;;;;3.00;2.00;;;;;;;17.86;54.83;101596.19;5052601;28;20260;-78
2022/05/26 10:09:58;;;;;;;3.03;1.80;;;;;;;17.98;53.97;101636.34;5052390;28;20654;-78
2022/05/26 10:12:34;;;;;;;3.60;1.80;;;;;;;17.97;52.87;101663.66;5051312;28;20241;-78
2022/05/26 10:15:11;;;;;;;3.07;2.03;;;;;;;17.93;53.39;101691.09;5052300;28;20210;-77
2022/05/26 10:17:51;;;;;;;2.33;2.00;;;;;;;17.90;53.30;101668.28;5051814;28;20653;-76
2022/05/26 10:20:34;;;;;;;3.50;1.80;;;;;;;18.02;52.83;101667.91;5052389;28;20195;-77
2022/05/26 10:23:26;;;;;;;5.77;1.83;;;;;;;17.91;53.87;101669.13;5051498;28;20235;-78
2022/05/26 10:26:02;;;;;;;2.00;1.57;;;;;;;18.12;54.53;101626.22;5052056;28;20235;-78
2022/05/26 10:28:48;;;;;;;4.33;1.83;;;;;;;18.21;53.03;101667.31;5052367;28;20212;-77
2022/05/26 10:31:28;;;;;;;3.53;2.07;;;;;;;17.90;53.72;101673.56;5052830;28;20242;-77
2022/05/26 10:34:14;;;;;;;3.23;2.33;;;;;;;18.00;55.24;101623.97;5051735;28;20228;-77
2022/05/26 10:36:54;;;;;;;2.87;2.13;;;;;;;18.01;55.77;101608.03;5051641;28;20212;-76
2022/05/26 10:39:31;;;;;;;4.20;2.30;;;;;;;18.33;55.12;101585.00;5051506;28;20196;-77
2022/05/26 10:42:03;;;;;;;2.63;1.80;;;;;;;18.57;55.78;101595.66;5051685;28;20220;-79
2022/05/26 10:44:35;;;;;;;2.70;2.10;;;;;;;18.57;56.38;101567.47;5052801;28;20239;-79
2022/05/26 10:47:07;;;;;;;2.90;2.33;;;;;;;18.49;55.90;101590.63;5054871;28;20200;-79
2022/05/26 10:49:43;;;;;;;3.37;1.87;;;;;;;18.02;54.18;101633.56;5050716;28;20203;-78
2022/05/26 10:52:14;;;;;;;4.30;2.30;;;;;;;17.83;54.95;101604.19;5052261;28;20219;-76
2022/05/26 10:54:48;;;;;;;2.60;2.10;;;;;;;17.73;54.78;101615.91;5050890;28;20647;-77
2022/05/26 10:57:21;;;;;;;2.27;2.07;;;;;;;17.86;54.36;101632.31;5053352;28;20186;-77
2022/05/26 10:59:54;;;;;;;2.27;1.70;;;;;;;18.05;52.43;101612.31;5052506;28;20619;-76
2022/05/26 11:02:29;;;;;;;3.43;1.83;;;;;;;18.27;53.10;101664.50;5052575;28;20246;-78
2022/05/26 11:05:01;;;;;;;2.40;1.70;;;;;;;18.14;52.06;101684.31;5051989;28;20230;-77
2022/05/26 11:07:33;;;;;;;4.80;2.53;;;;;;;18.33;53.97;101674.00;5051425;28;20566;-78
2022/05/26 11:10:05;;;;;;;2.10;1.90;;;;;;;18.33;52.38;101648.44;5052010;28;20205;-77
2022/05/26 11:12:37;;;;;;;3.47;2.53;;;;;;;18.22;53.57;101671.72;5050555;28;20207;-78
2022/05/26 11:17:59;;;;;;;2.97;2.03;;;;;;;18.72;52.79;101647.19;5052548;28;20310;-78
2022/05/26 11:20:30;;;;;;;4.40;2.40;;;;;;;19.15;54.33;101632.53;5052896;28;20205;-78
2022/05/26 11:23:02;;;;;;;3.70;2.77;;;;;;;19.37;53.61;101630.81;5054934;28;20256;-78
2022/05/26 11:25:32;;;;;;;2.43;2.20;;;;;;;19.66;53.60;101618.25;5055278;28;20649;-77
2022/05/26 11:28:05;;;;;;;4.87;2.70;;;;;;;19.77;52.77;101636.44;5053627;28;20212;-78
2022/05/26 11:36:22;;;;;;;3.13;2.23;;;;;;;19.04;54.34;101668.16;5055844;28;20823;-77
2022/05/26 11:38:52;;;;;;;2.80;2.17;;;;;;;18.72;53.11;101636.63;5055145;28;20189;-76
2022/05/26 11:41:27;;;;;;;1.77;1.63;;;;;;;18.23;51.93;101679.56;5054758;28;20788;-77
2022/05/26 11:44:03;;;;;;;3.47;2.30;;;;;;;18.28;53.55;101613.38;5047821;28;20338;-78
2022/05/26 11:46:53;;;;;;;2.90;1.60;;;;;;;18.44;52.02;101667.47;5056750;28;20308;-78
2022/05/26 11:49:56;;;;;;;2.40;1.70;;;;;;;18.65;51.23;101665.91;5054929;28;20205;-77
2022/05/26 11:52:26;;;;;;;2.30;1.90;;;;;;;19.86;49.08;101706.75;5056079;28;20215;-79
2022/05/26 11:55:10;;;;;;;3.90;2.03;;;;;;;20.54;48.69;101771.34;5058129;28;20231;-77
2022/05/26 11:57:49;;;;;;;2.27;1.77;;;;;;;20.73;47.22;101793.59;5056454;28;20266;-79
2022/05/26 12:00:20;;;;;;;2.20;1.53;;;;;;;19.28;49.28;101818.25;5055454;28;20202;-76
2022/05/26 12:02:50;;;;;;;2.00;1.57;;;;;;;19.35;50.44;101750.94;5054003;28;20217;-77
2022/05/26 12:05:47;;;;;;;2.33;1.70;;;;;;;18.96;51.85;101720.47;5054782;28;20233;-78
2022/05/26 12:08:40;;;;;;;2.60;2.13;;;;;;;18.26;52.02;101699.78;5053161;28;20321;-77
2022/05/26 12:11:09;;;;;;;2.27;1.90;;;;;;;18.39;53.18;101644.72;5043561;28;20217;-76
2022/05/26 12:13:41;;;;;;;3.37;2.23;;;;;;;18.46;54.46;101603.97;5054027;28;20270;-77